Time;durP1;ratioP1;P1;durP2;ratioP2;P2;SDS_P1;SDS_P2;PMS_P1;PMS_P2;Temp;Humidity;BMP_temperature;BMP_pressure;BME280_temperature;BME280_humidity;BME280_pressure;Samples;Min_cycle;Max_cycle;Signal;HPM_P1;HPM_P2
2021/08/11 00:02:04;;;;;;;2.63;1.27;;;26.50;54.70;;;;;;5009844;28;20145;-73
2021/08/11 00:04:32;;;;;;;1.20;1.20;;;26.50;54.70;;;;;;5009572;28;20046;-73
2021/08/11 00:06:59;;;;;;;1.38;1.05;;;26.50;54.70;;;;;;5010222;28;20128;-73
2021/08/11 00:09:26;;;;;;;1.30;1.20;;;26.50;54.70;;;;;;5009437;28;20054;-73
2021/08/11 00:11:53;;;;;;;1.30;1.20;;;26.40;54.70;;;;;;5009713;28;20530;-73
2021/08/11 00:14:20;;;;;;;1.48;1.33;;;26.50;54.80;;;;;;5008495;28;20407;-73
2021/08/11 00:16:47;;;;;;;1.10;1.00;;;26.50;54.80;;;;;;5009438;28;20052;-72
2021/08/11 00:19:14;;;;;;;0.77;0.70;;;26.40;54.70;;;;;;5009785;28;20132;-73
2021/08/11 00:21:42;;;;;;;1.50;1.40;;;26.40;54.70;;;;;;5009440;28;20045;-73
2021/08/11 00:24:10;;;;;;;0.80;0.80;;;26.40;54.70;;;;;;5013926;28;20052;-73
2021/08/11 00:26:37;;;;;;;1.33;1.23;;;26.40;54.70;;;;;;5028990;28;20525;-73
2021/08/11 00:29:04;;;;;;;1.35;1.25;;;26.40;54.80;;;;;;5028073;28;20136;-73
2021/08/11 00:31:31;;;;;;;1.52;1.42;;;26.40;54.70;;;;;;5017779;28;20654;-73
2021/08/11 00:33:58;;;;;;;1.90;1.75;;;26.40;54.80;;;;;;5028612;28;20050;-73
2021/08/11 00:36:26;;;;;;;0.90;0.90;;;26.40;54.80;;;;;;5017247;28;20049;-73
2021/08/11 00:38:53;;;;;;;1.15;1.05;;;26.40;54.80;;;;;;5009008;28;20053;-73
2021/08/11 00:41:20;;;;;;;1.20;1.05;;;26.40;54.80;;;;;;5008957;28;20451;-73
2021/08/11 00:43:47;;;;;;;0.95;0.93;;;26.40;54.80;;;;;;5008986;28;20136;-72
2021/08/11 00:46:14;;;;;;;1.33;1.23;;;26.40;55.40;;;;;;5009074;28;20041;-73
2021/08/11 00:48:42;;;;;;;1.38;1.20;;;26.40;54.90;;;;;;5020993;28;20136;-73
2021/08/11 00:51:09;;;;;;;1.95;1.40;;;26.40;54.90;;;;;;5028020;28;20049;-73
2021/08/11 00:53:39;;;;;;;1.08;1.00;;;26.40;54.90;;;;;;5023785;28;20049;-73
2021/08/11 00:56:08;;;;;;;1.20;1.20;;;26.40;54.90;;;;;;5012412;28;20554;-73
2021/08/11 00:58:37;;;;;;;1.13;1.05;;;26.40;54.90;;;;;;5033839;28;20045;-73
2021/08/11 01:01:05;;;;;;;0.98;0.98;;;26.40;54.90;;;;;;5008813;28;20050;-73
2021/08/11 01:03:34;;;;;;;1.20;1.20;;;26.40;54.90;;;;;;5008251;28;20058;-76
2021/08/11 01:06:03;;;;;;;0.77;0.77;;;26.40;54.90;;;;;;5008669;28;20089;-73
2021/08/11 01:08:31;;;;;;;0.90;0.90;;;26.40;54.90;;;;;;5008431;28;20479;-73
2021/08/11 01:10:59;;;;;;;1.00;0.90;;;26.40;54.90;;;;;;5008290;28;20495;-73
2021/08/11 01:13:28;;;;;;;1.27;1.15;;;26.40;54.90;;;;;;5008575;28;20133;-73
2021/08/11 01:15:55;;;;;;;1.10;1.00;;;26.40;54.90;;;;;;5008292;28;20085;-73
2021/08/11 01:18:22;;;;;;;1.00;1.00;;;26.40;54.90;;;;;;5008687;28;20442;-73
2021/08/11 01:21:12;;;;;;;0.98;0.98;;;26.40;54.90;;;;;;5008287;28;20045;-73
2021/08/11 01:24:10;;;;;;;2.47;1.40;;;26.40;54.80;;;;;;5008739;28;20408;-73
2021/08/11 01:27:06;;;;;;;1.63;1.30;;;26.40;54.90;;;;;;5020945;28;20049;-74
2021/08/11 01:30:06;;;;;;;1.15;1.15;;;26.40;54.90;;;;;;5008452;28;20053;-73
2021/08/11 01:33:13;;;;;;;2.08;1.77;;;26.40;54.90;;;;;;5008498;28;20121;-73
2021/08/11 01:35:58;;;;;;;1.23;0.93;;;26.40;54.90;;;;;;5020522;28;20786;-73
2021/08/11 01:38:29;;;;;;;1.50;1.40;;;26.40;54.90;;;;;;5008498;28;20446;-73
2021/08/11 01:41:01;;;;;;;1.20;1.10;;;26.40;54.90;;;;;;5007837;28;20474;-73
2021/08/11 01:43:33;;;;;;;1.40;1.15;;;26.40;54.90;;;;;;5008609;28;20483;-73
2021/08/11 01:46:01;;;;;;;1.15;1.02;;;26.40;54.90;;;;;;5022104;28;20499;-73
2021/08/11 01:48:30;;;;;;;1.20;1.10;;;26.40;54.90;;;;;;5008492;28;20125;-73
2021/08/11 01:50:58;;;;;;;1.40;1.30;;;26.30;54.90;;;;;;5022708;28;20058;-73
2021/08/11 01:53:27;;;;;;;1.23;1.23;;;26.40;55.00;;;;;;5006830;28;20130;-73
2021/08/11 01:55:57;;;;;;;1.55;1.45;;;26.40;55.00;;;;;;5007801;28;20092;-73
2021/08/11 01:58:26;;;;;;;1.50;1.40;;;26.30;54.90;;;;;;5007917;28;20474;-73
2021/08/11 02:00:58;;;;;;;1.02;1.02;;;26.40;55.00;;;;;;5010082;28;20056;-71
2021/08/11 02:03:26;;;;;;;1.30;1.10;;;26.30;54.90;;;;;;5011733;28;20491;-71
2021/08/11 02:05:55;;;;;;;1.73;1.58;;;26.30;54.90;;;;;;5012120;28;20054;-70
2021/08/11 02:08:24;;;;;;;1.42;1.33;;;26.30;54.90;;;;;;5011933;28;20081;-71
2021/08/11 02:10:55;;;;;;;1.38;1.27;;;26.30;55.00;;;;;;5011659;28;20383;-70
2021/08/11 02:13:22;;;;;;;2.78;1.40;;;26.30;55.00;;;;;;5012049;28;20085;-70
2021/08/11 02:15:50;;;;;;;1.27;1.17;;;26.30;55.00;;;;;;5010353;28;20132;-71
2021/08/11 02:18:18;;;;;;;1.65;1.35;;;26.30;55.00;;;;;;5012161;28;20901;-70
2021/08/11 02:20:46;;;;;;;1.27;1.10;;;26.30;55.00;;;;;;5011333;28;20419;-71
2021/08/11 02:23:13;;;;;;;1.35;1.25;;;26.30;55.00;;;;;;5011960;28;20050;-70
2021/08/11 02:25:51;;;;;;;2.10;1.45;;;26.30;55.00;;;;;;5027757;28;20144;-70
2021/08/11 02:28:34;;;;;;;1.38;1.27;;;26.30;55.00;;;;;;5031031;28;20049;-70
2021/08/11 02:31:11;;;;;;;1.20;1.20;;;26.30;55.00;;;;;;5031167;28;20149;-73
2021/08/11 02:33:56;;;;;;;1.48;1.15;;;26.30;55.00;;;;;;5031093;28;20041;-73
2021/08/11 02:36:29;;;;;;;1.30;1.20;;;26.30;55.50;;;;;;5031063;28;20055;-73
2021/08/11 02:39:07;;;;;;;1.10;1.10;;;26.30;55.00;;;;;;5030985;28;20118;-70
2021/08/11 02:41:44;;;;;;;1.10;1.00;;;26.30;55.00;;;;;;5031015;28;20054;-70
2021/08/11 02:44:18;;;;;;;1.55;1.17;;;26.30;55.00;;;;;;5030881;28;20056;-70
2021/08/11 02:46:49;;;;;;;1.42;1.33;;;26.30;55.00;;;;;;5030899;28;20049;-70
2021/08/11 02:49:27;;;;;;;1.05;1.05;;;26.30;54.90;;;;;;5031266;28;20129;-72
2021/08/11 02:51:59;;;;;;;1.10;1.10;;;26.30;55.00;;;;;;5030526;28;20096;-73
2021/08/11 02:54:29;;;;;;;1.85;1.30;;;26.30;55.00;;;;;;5030786;28;20045;-72
2021/08/11 02:57:00;;;;;;;1.10;1.10;;;26.30;54.90;;;;;;5030599;28;20136;-72
2021/08/11 02:59:29;;;;;;;1.27;1.23;;;26.30;54.90;;;;;;5030628;28;20053;-73
2021/08/11 03:01:56;;;;;;;1.35;1.27;;;26.30;54.90;;;;;;5030914;28;20051;-73
2021/08/11 03:04:24;;;;;;;1.00;1.00;;;26.30;54.90;;;;;;5030192;28;20046;-72
2021/08/11 03:06:52;;;;;;;1.30;1.20;;;26.30;54.90;;;;;;5030664;28;20132;-72
2021/08/11 03:09:21;;;;;;;1.13;1.10;;;26.30;54.90;;;;;;5030441;28;20508;-72
2021/08/11 03:11:48;;;;;;;1.55;1.45;;;26.30;55.00;;;;;;5030078;28;20068;-72
2021/08/11 03:14:16;;;;;;;1.00;0.98;;;26.30;55.00;;;;;;5030684;28;20470;-72
2021/08/11 03:16:44;;;;;;;0.80;0.70;;;26.30;55.00;;;;;;5030016;28;20054;-72
2021/08/11 03:19:11;;;;;;;1.15;1.05;;;26.30;55.00;;;;;;5026960;28;20137;-72
2021/08/11 03:21:39;;;;;;;1.33;1.23;;;26.30;55.00;;;;;;5029846;28;20091;-72
2021/08/11 03:24:06;;;;;;;1.15;1.10;;;26.30;55.00;;;;;;5028740;28;20140;-72
2021/08/11 03:26:33;;;;;;;1.10;1.10;;;26.20;54.90;;;;;;5021101;28;20088;-72
2021/08/11 03:29:01;;;;;;;1.15;1.10;;;26.30;55.00;;;;;;5010284;28;20049;-73
2021/08/11 03:31:30;;;;;;;1.40;1.30;;;26.30;55.00;;;;;;5023461;28;20045;-72
2021/08/11 03:33:58;;;;;;;0.95;0.95;;;26.30;55.00;;;;;;5029521;28;20056;-72
2021/08/11 03:36:27;;;;;;;2.08;1.25;;;26.30;55.00;;;;;;5029783;28;20077;-72
2021/08/11 03:38:54;;;;;;;1.20;1.10;;;26.30;55.00;;;;;;5029275;28;20132;-72
2021/08/11 03:41:21;;;;;;;1.10;1.10;;;26.30;55.00;;;;;;5029574;28;20055;-72
2021/08/11 03:43:49;;;;;;;2.28;1.23;;;26.20;55.00;;;;;;5015357;28;20153;-72
2021/08/11 03:46:16;;;;;;;1.08;0.98;;;26.20;55.00;;;;;;5009212;28;20046;-72
2021/08/11 03:48:44;;;;;;;1.20;1.10;;;26.30;55.00;;;;;;5009928;28;20060;-72
2021/08/11 03:51:11;;;;;;;1.05;1.05;;;26.30;55.00;;;;;;5010154;28;20314;-72
2021/08/11 03:53:39;;;;;;;1.08;1.08;;;26.20;55.00;;;;;;5010165;28;20081;-72
2021/08/11 03:56:07;;;;;;;3.63;1.20;;;26.30;55.00;;;;;;5021973;28;20132;-72
2021/08/11 03:58:35;;;;;;;1.50;1.17;;;26.30;55.00;;;;;;5009971;28;20084;-72
2021/08/11 04:01:02;;;;;;;1.05;1.05;;;26.20;54.90;;;;;;5016075;28;20077;-73
2021/08/11 04:03:30;;;;;;;1.30;1.20;;;26.30;55.00;;;;;;5018685;28;20042;-72
2021/08/11 04:05:57;;;;;;;1.20;1.10;;;26.30;55.00;;;;;;5022535;28;20050;-72
2021/08/11 04:08:25;;;;;;;1.30;1.20;;;26.30;55.00;;;;;;5024240;28;20045;-72
2021/08/11 04:10:53;;;;;;;1.13;1.13;;;26.30;54.90;;;;;;5028617;28;20049;-72
2021/08/11 04:13:20;;;;;;;1.25;1.13;;;26.30;54.90;;;;;;5029330;28;20045;-72
2021/08/11 04:15:48;;;;;;;1.30;1.20;;;26.30;54.80;;;;;;5028968;28;20136;-72
2021/08/11 04:18:15;;;;;;;1.35;1.25;;;26.30;54.80;;;;;;5029555;28;20391;-72
2021/08/11 04:20:44;;;;;;;1.85;1.75;;;26.40;54.80;;;;;;5029697;28;20828;-71
2021/08/11 04:23:11;;;;;;;1.17;0.80;;;26.40;54.80;;;;;;5028577;28;20136;-72
2021/08/11 04:25:42;;;;;;;1.13;1.10;;;26.40;54.70;;;;;;5027362;28;20045;-72
2021/08/11 04:28:09;;;;;;;1.38;1.00;;;26.40;54.70;;;;;;5029180;28;20056;-72
2021/08/11 04:30:37;;;;;;;0.93;0.90;;;26.40;54.60;;;;;;5028276;28;20120;-72
2021/08/11 04:33:04;;;;;;;1.50;1.40;;;26.40;54.60;;;;;;5028994;28;20439;-71
2021/08/11 04:35:31;;;;;;;1.05;1.00;;;26.40;54.50;;;;;;5028656;28;20049;-72
2021/08/11 04:37:58;;;;;;;0.93;0.90;;;26.40;54.50;;;;;;5027505;28;20041;-71
2021/08/11 04:40:26;;;;;;;1.00;1.00;;;26.50;54.50;;;;;;5019432;28;20073;-72
2021/08/11 04:42:53;;;;;;;1.80;1.10;;;26.50;54.50;;;;;;5028376;28;20084;-72
2021/08/11 04:45:21;;;;;;;1.52;1.42;;;26.50;54.40;;;;;;5028398;28;20049;-72
2021/08/11 04:47:48;;;;;;;0.98;0.95;;;26.50;54.40;;;;;;5028541;28;20049;-72
2021/08/11 04:50:15;;;;;;;1.00;1.00;;;26.50;54.30;;;;;;5023144;28;20199;-72
2021/08/11 04:52:42;;;;;;;1.10;1.10;;;26.50;54.30;;;;;;5025336;28;20048;-72
2021/08/11 04:55:12;;;;;;;1.50;1.17;;;26.50;54.30;;;;;;5026394;28;20051;-74
2021/08/11 04:57:40;;;;;;;2.10;1.35;;;26.60;54.30;;;;;;5028158;28;20049;-71
2021/08/11 05:00:08;;;;;;;1.20;1.10;;;26.50;54.20;;;;;;5028036;28;20542;-72
2021/08/11 05:02:37;;;;;;;1.15;1.15;;;26.60;54.20;;;;;;5028404;28;20415;-72
2021/08/11 05:05:06;;;;;;;1.30;1.20;;;26.60;54.10;;;;;;5027683;28;20103;-71
2021/08/11 05:07:34;;;;;;;0.80;0.80;;;26.60;54.10;;;;;;5027408;28;20396;-71
2021/08/11 05:10:01;;;;;;;1.33;1.23;;;26.50;54.20;;;;;;5023443;28;20474;-72
2021/08/11 05:12:29;;;;;;;1.30;1.20;;;26.50;54.50;;;;;;5015310;28;20051;-71
2021/08/11 05:14:57;;;;;;;1.48;1.38;;;26.40;54.60;;;;;;5016809;28;20069;-72
2021/08/11 05:17:26;;;;;;;1.73;1.10;;;26.30;54.90;;;;;;5025866;28;20472;-72
2021/08/11 05:19:53;;;;;;;1.10;1.10;;;26.10;55.20;;;;;;5014145;28;20582;-72
2021/08/11 05:22:22;;;;;;;1.30;1.20;;;25.90;55.90;;;;;;5014798;28;20138;-72
2021/08/11 05:24:50;;;;;;;6.57;1.85;;;25.50;56.90;;;;;;5017747;28;20132;-72
2021/08/11 05:27:17;;;;;;;1.73;1.63;;;25.20;58.00;;;;;;5014579;28;20376;-72
2021/08/11 05:29:45;;;;;;;2.70;2.22;;;25.00;59.20;;;;;;5017180;28;20128;-69
2021/08/11 05:32:14;;;;;;;2.42;2.22;;;24.80;59.10;;;;;;5020280;28;20493;-72
2021/08/11 05:34:42;;;;;;;3.58;2.40;;;24.70;59.20;;;;;;5015741;28;20136;-76
2021/08/11 05:37:09;;;;;;;3.05;2.53;;;24.50;59.60;;;;;;5019854;28;20049;-69
2021/08/11 05:39:36;;;;;;;4.53;3.38;;;24.40;60.00;;;;;;5020000;28;20076;-70
2021/08/11 05:42:05;;;;;;;4.53;3.20;;;24.30;60.30;;;;;;5017143;28;20136;-70
2021/08/11 05:44:33;;;;;;;4.72;3.88;;;24.20;60.70;;;;;;5016736;28;20046;-70
2021/08/11 05:47:03;;;;;;;3.75;3.25;;;24.00;61.30;;;;;;5016380;28;20484;-71
2021/08/11 05:49:32;;;;;;;3.78;3.03;;;23.90;62.00;;;;;;5016361;28;20462;-70
2021/08/11 05:51:59;;;;;;;8.02;3.50;;;23.80;62.10;;;;;;5013722;28;20145;-70
2021/08/11 05:54:27;;;;;;;6.80;4.15;;;23.80;62.70;;;;;;5017814;28;20144;-71
2021/08/11 05:56:54;;;;;;;4.88;4.38;;;23.60;64.00;;;;;;5019531;28;20129;-70
2021/08/11 05:59:21;;;;;;;9.48;4.40;;;23.50;64.70;;;;;;5014762;28;20041;-71
2021/08/11 06:01:48;;;;;;;10.40;5.32;;;23.50;65.10;;;;;;5021595;28;20144;-70
2021/08/11 06:04:17;;;;;;;5.45;4.78;;;23.40;67.40;;;;;;5017383;28;20045;-70
2021/08/11 06:06:44;;;;;;;5.57;4.65;;;23.40;67.10;;;;;;5022029;28;20053;-71
2021/08/11 06:09:11;;;;;;;4.95;4.45;;;23.40;69.40;;;;;;5019231;28;20081;-71
2021/08/11 06:11:38;;;;;;;5.05;4.55;;;23.40;68.30;;;;;;5014685;28;20089;-69
2021/08/11 06:14:05;;;;;;;6.80;4.60;;;23.40;68.00;;;;;;5015360;28;20045;-69
2021/08/11 06:16:37;;;;;;;4.90;4.38;;;23.50;69.20;;;;;;5017280;28;20454;-75
2021/08/11 06:19:04;;;;;;;8.57;4.93;;;23.50;68.80;;;;;;5021030;28;20050;-70
2021/08/11 06:21:32;;;;;;;6.25;4.20;;;23.50;68.00;;;;;;5019285;28;20049;-68
2021/08/11 06:23:59;;;;;;;5.13;4.63;;;23.40;67.50;;;;;;5019407;28;20128;-64
2021/08/11 06:26:26;;;;;;;3.88;3.47;;;23.40;67.50;;;;;;5017940;28;20575;-67
2021/08/11 06:28:54;;;;;;;6.15;3.95;;;23.40;67.40;;;;;;5017864;28;20950;-65
2021/08/11 06:31:23;;;;;;;6.15;3.75;;;23.40;67.40;;;;;;5015547;28;20188;-61
2021/08/11 06:33:52;;;;;;;4.30;3.83;;;23.40;67.10;;;;;;5018357;28;20069;-69
2021/08/11 06:36:20;;;;;;;5.05;3.90;;;23.40;67.50;;;;;;5016208;28;20072;-72
2021/08/11 06:38:49;;;;;;;3.83;3.40;;;23.40;67.50;;;;;;5013437;28;20405;-67
2021/08/11 06:41:16;;;;;;;4.38;3.70;;;23.40;67.50;;;;;;5014654;28;20156;-67
2021/08/11 06:43:47;;;;;;;4.03;3.63;;;23.40;67.90;;;;;;5021935;28;20133;-64
2021/08/11 06:46:14;;;;;;;8.30;3.47;;;23.50;68.00;;;;;;5016621;28;20049;-64
2021/08/11 06:48:42;;;;;;;4.82;3.30;;;23.50;67.80;;;;;;5020053;28;20045;-65
2021/08/11 06:51:11;;;;;;;4.57;3.55;;;23.50;67.80;;;;;;5020346;28;20048;-67
2021/08/11 06:53:38;;;;;;;3.83;3.30;;;23.60;67.70;;;;;;5023331;28;20394;-62
2021/08/11 06:56:06;;;;;;;5.50;3.47;;;23.60;67.60;;;;;;5018081;28;20068;-67
2021/08/11 06:58:35;;;;;;;3.75;3.30;;;23.60;67.50;;;;;;5015415;28;20038;-61
2021/08/11 07:01:05;;;;;;;7.20;4.03;;;23.60;67.60;;;;;;5023755;28;20136;-62
2021/08/11 07:03:33;;;;;;;4.30;3.13;;;23.60;67.20;;;;;;5017924;28;20465;-63
2021/08/11 07:06:01;;;;;;;3.53;3.15;;;23.70;66.60;;;;;;5019193;28;20474;-64
2021/08/11 07:08:28;;;;;;;3.83;3.30;;;23.70;66.30;;;;;;5018552;28;20153;-64
2021/08/11 07:10:56;;;;;;;3.88;3.40;;;23.60;66.20;;;;;;5016032;28;20529;-62
2021/08/11 07:13:23;;;;;;;4.28;3.67;;;23.60;66.00;;;;;;5023191;28;20128;-66
2021/08/11 07:15:52;;;;;;;5.22;3.53;;;23.60;66.00;;;;;;5020227;28;20484;-66
2021/08/11 07:18:20;;;;;;;3.50;3.20;;;23.60;65.90;;;;;;5020901;28;20100;-62
2021/08/11 07:20:47;;;;;;;5.20;3.33;;;23.60;65.80;;;;;;5016537;28;20498;-70
2021/08/11 07:23:14;;;;;;;3.42;3.03;;;23.60;65.70;;;;;;5020261;28;20136;-73
2021/08/11 07:25:42;;;;;;;4.22;3.03;;;23.60;65.60;;;;;;5020411;28;20876;-74
2021/08/11 07:28:10;;;;;;;6.55;3.38;;;23.60;65.50;;;;;;5022517;28;20601;-74
2021/08/11 07:30:37;;;;;;;3.83;3.17;;;23.60;65.40;;;;;;5025079;28;20057;-68
2021/08/11 07:33:07;;;;;;;4.18;3.20;;;23.60;65.40;;;;;;5019113;28;20049;-73
2021/08/11 07:35:36;;;;;;;5.10;3.38;;;23.60;65.60;;;;;;5039597;28;20808;-69
2021/08/11 07:38:04;;;;;;;3.58;2.80;;;23.60;65.60;;;;;;5020504;28;20038;-64
2021/08/11 07:40:32;;;;;;;3.60;2.88;;;23.60;66.10;;;;;;5024088;28;20053;-61
2021/08/11 07:43:00;;;;;;;7.65;3.25;;;23.60;66.70;;;;;;5016108;28;20133;-64
2021/08/11 07:45:30;;;;;;;4.13;3.72;;;23.70;66.80;;;;;;5024455;28;20119;-63
2021/08/11 07:47:58;;;;;;;3.70;3.10;;;23.70;66.40;;;;;;5023697;28;20854;-77
2021/08/11 07:50:28;;;;;;;4.45;3.20;;;23.70;66.10;;;;;;5030717;28;20041;-73
2021/08/11 07:52:55;;;;;;;3.35;3.00;;;23.70;66.10;;;;;;5023858;28;20125;-65
2021/08/11 07:55:23;;;;;;;3.60;3.30;;;23.70;66.10;;;;;;5019062;28;20053;-64
2021/08/11 07:57:51;;;;;;;3.03;2.80;;;23.70;66.10;;;;;;5019628;28;20550;-63
2021/08/11 08:00:20;;;;;;;4.13;3.15;;;23.70;66.00;;;;;;5021781;28;20069;-65
2021/08/11 08:02:47;;;;;;;5.17;2.93;;;23.70;65.90;;;;;;5020835;28;20495;-68
2021/08/11 08:05:16;;;;;;;4.38;3.20;;;23.80;66.00;;;;;;5020038;28;20046;-64
2021/08/11 08:07:43;;;;;;;3.45;2.83;;;23.80;65.90;;;;;;5017378;28;20056;-63
2021/08/11 08:10:12;;;;;;;3.20;2.90;;;23.80;65.80;;;;;;5019102;28;20041;-65
2021/08/11 08:12:40;;;;;;;5.38;3.28;;;23.80;65.70;;;;;;5022799;28;20167;-69
2021/08/11 08:15:08;;;;;;;3.75;3.45;;;23.80;65.70;;;;;;5020463;28;20104;-71
2021/08/11 08:17:35;;;;;;;5.47;3.40;;;23.80;65.60;;;;;;5023394;28;20061;-74
2021/08/11 08:20:17;;;;;;;4.55;3.45;;;23.80;65.60;;;;;;5020484;28;20970;-71
2021/08/11 08:22:46;;;;;;;5.05;2.63;;;23.80;65.50;;;;;;5017681;28;20038;-73
2021/08/11 08:25:20;;;;;;;3.73;3.43;;;23.80;65.80;;;;;;5019458;28;20068;-72
2021/08/11 08:27:52;;;;;;;3.13;2.78;;;23.80;65.80;;;;;;5015772;28;20049;-64
2021/08/11 08:30:42;;;;;;;3.83;3.17;;;23.80;66.10;;;;;;5020418;28;20042;-71
2021/08/11 08:33:09;;;;;;;6.07;3.25;;;23.80;66.20;;;;;;5020286;28;20048;-70
2021/08/11 08:35:36;;;;;;;3.97;2.90;;;23.80;66.10;;;;;;5019267;28;20136;-69
2021/08/11 08:38:04;;;;;;;3.15;2.90;;;23.80;66.00;;;;;;5022060;28;20056;-65
2021/08/11 08:40:34;;;;;;;3.95;3.25;;;23.80;66.00;;;;;;5018455;28;20054;-63
2021/08/11 08:43:03;;;;;;;3.35;3.00;;;23.80;66.00;;;;;;5019276;28;20049;-71
2021/08/11 08:45:30;;;;;;;3.50;3.20;;;23.80;65.90;;;;;;5018049;28;20176;-73
2021/08/11 08:48:02;;;;;;;3.17;2.70;;;23.80;66.00;;;;;;5020244;28;20054;-69
2021/08/11 08:50:30;;;;;;;3.05;2.70;;;23.90;66.00;;;;;;5018809;28;20556;-72
2021/08/11 08:52:59;;;;;;;3.08;2.78;;;23.80;66.30;;;;;;5022977;28;20124;-72
2021/08/11 08:55:27;;;;;;;5.40;2.80;;;23.90;66.40;;;;;;5025158;28;20099;-74
2021/08/11 08:57:54;;;;;;;3.10;2.80;;;23.80;66.50;;;;;;5022819;28;20140;-75
2021/08/11 09:00:22;;;;;;;3.50;2.55;;;23.90;66.40;;;;;;5019849;28;20172;-75
2021/08/11 09:02:49;;;;;;;3.08;2.78;;;23.90;66.20;;;;;;5019999;28;20525;-72
2021/08/11 09:05:18;;;;;;;4.55;2.60;;;23.90;65.80;;;;;;5020589;28;20103;-73
2021/08/11 09:07:47;;;;;;;3.45;2.97;;;23.90;65.60;;;;;;5038779;28;20054;-74
2021/08/11 09:10:29;;;;;;;3.20;2.90;;;23.90;65.40;;;;;;5022249;28;20450;-73
2021/08/11 09:13:07;;;;;;;3.08;2.85;;;23.90;65.90;;;;;;5001104;28;20048;-73
2021/08/11 09:15:41;;;;;;;3.60;2.80;;;23.90;65.30;;;;;;5011788;28;20065;-75
2021/08/11 09:18:17;;;;;;;3.22;2.88;;;23.90;65.00;;;;;;5025204;28;20140;-74
2021/08/11 09:20:47;;;;;;;2.85;2.65;;;23.90;65.00;;;;;;5018928;28;20048;-76
2021/08/11 09:23:15;;;;;;;;;;;23.90;65.00;;;;;;5020416;28;20397;-73
2021/08/11 09:25:58;;;;;;;2.40;2.20;;;23.90;64.70;;;;;;5019893;28;19944;-74
2021/08/11 09:28:31;;;;;;;3.17;2.92;;;23.90;64.70;;;;;;5018265;28;20395;-74
2021/08/11 09:31:28;;;;;;;3.17;2.92;;;23.90;64.80;;;;;;5016173;28;20080;-73
2021/08/11 09:34:00;;;;;;;2.40;2.20;;;23.90;64.70;;;;;;5018361;28;20053;-73
2021/08/11 09:36:41;;;;;;;2.85;2.50;;;23.80;64.60;;;;;;5015182;28;20049;-73
2021/08/11 09:39:08;;;;;;;;;;;23.90;64.50;;;;;;5021045;28;20081;-73
2021/08/11 09:41:35;;;;;;;2.70;2.50;;;23.80;64.40;;;;;;5018594;28;20003;-73
2021/08/11 09:44:09;;;;;;;2.75;2.55;;;23.80;64.30;;;;;;5015296;28;20045;-71
2021/08/11 09:46:40;;;;;;;2.80;2.30;;;23.90;64.40;;;;;;5016554;28;20081;-72
2021/08/11 09:49:19;;;;;;;3.38;3.00;;;23.80;64.20;;;;;;5017209;28;20042;-72
2021/08/11 09:51:55;;;;;;;6.90;3.05;;;23.80;64.20;;;;;;5020402;28;20136;-72
2021/08/11 09:54:23;;;;;;;2.90;2.63;;;23.80;64.20;;;;;;5017939;28;20041;-70
2021/08/11 09:56:50;;;;;;;2.78;2.58;;;23.90;64.10;;;;;;5017539;28;20354;-71
2021/08/11 09:59:18;;;;;;;2.65;2.47;;;23.90;63.90;;;;;;5016678;28;20118;-76
2021/08/11 10:01:48;;;;;;;2.70;2.50;;;23.90;63.80;;;;;;5017097;28;20053;-75
2021/08/11 10:04:16;;;;;;;2.60;2.40;;;23.90;63.60;;;;;;5016858;28;20059;-73
2021/08/11 10:06:45;;;;;;;3.35;2.50;;;23.90;63.30;;;;;;5015083;28;20054;-77
2021/08/11 10:09:25;;;;;;;2.77;2.37;;;23.90;63.70;;;;;;5022924;28;20706;-72
2021/08/11 10:11:55;;;;;;;2.67;2.47;;;23.90;63.00;;;;;;5024474;28;20053;-73
2021/08/11 10:14:26;;;;;;;2.53;2.33;;;23.90;62.90;;;;;;5021469;28;20857;-73
2021/08/11 10:16:57;;;;;;;2.55;2.30;;;23.90;62.80;;;;;;5027780;28;20080;-76
2021/08/11 10:19:30;;;;;;;2.50;2.28;;;23.90;62.70;;;;;;5024218;28;20076;-74
2021/08/11 10:22:11;;;;;;;2.15;2.05;;;23.90;62.80;;;;;;5025639;28;20512;-74
2021/08/11 10:24:39;;;;;;;2.08;1.98;;;23.80;62.70;;;;;;5019887;28;20041;-71
2021/08/11 10:27:08;;;;;;;2.50;2.30;;;23.90;62.80;;;;;;5022031;28;20571;-73
2021/08/11 10:29:39;;;;;;;2.92;2.60;;;23.90;62.80;;;;;;5020638;28;20063;-72
2021/08/11 10:32:09;;;;;;;2.63;2.42;;;23.90;62.70;;;;;;5040598;28;20049;-73
2021/08/11 10:34:38;;;;;;;2.63;2.42;;;23.90;62.40;;;;;;5021125;28;20089;-72
2021/08/11 10:37:06;;;;;;;2.75;2.55;;;23.80;62.20;;;;;;5015420;28;20139;-64
2021/08/11 10:39:34;;;;;;;2.50;2.30;;;23.90;62.40;;;;;;5041583;28;20096;-65
2021/08/11 10:42:10;;;;;;;2.67;2.45;;;23.90;62.40;;;;;;5024293;28;20554;-68
2021/08/11 10:44:38;;;;;;;2.35;2.15;;;23.80;62.40;;;;;;5017547;28;20538;-64
2021/08/11 10:47:07;;;;;;;2.92;2.50;;;23.90;62.40;;;;;;5027631;28;20053;-71
2021/08/11 10:49:55;;;;;;;2.70;2.50;;;23.90;62.40;;;;;;5019566;28;20491;-65
2021/08/11 10:52:23;;;;;;;2.42;2.15;;;23.80;62.20;;;;;;5023083;28;20056;-65
2021/08/11 10:54:52;;;;;;;2.58;2.20;;;23.90;62.20;;;;;;5021493;28;20927;-64
2021/08/11 10:57:44;;;;;;;2.37;2.03;;;23.90;62.10;;;;;;5022034;28;20053;-63
2021/08/11 11:00:40;;;;;;;3.00;2.70;;;23.90;62.00;;;;;;5020620;28;20349;-69
2021/08/11 11:03:08;;;;;;;2.40;2.20;;;23.90;61.90;;;;;;5028296;28;20077;-69
2021/08/11 11:05:54;;;;;;;3.35;2.35;;;23.90;61.80;;;;;;5023939;28;20049;-67
2021/08/11 11:08:30;;;;;;;2.55;2.35;;;23.90;61.70;;;;;;5037373;28;20125;-69
2021/08/11 11:11:32;;;;;;;2.80;2.50;;;23.90;61.60;;;;;;5019844;28;20081;-67
2021/08/11 11:14:00;;;;;;;2.25;2.05;;;23.90;61.50;;;;;;5022195;28;20136;-68
2021/08/11 11:17:01;;;;;;;2.47;2.28;;;23.90;61.30;;;;;;5023412;28;20054;-63
2021/08/11 11:19:29;;;;;;;2.90;2.20;;;23.90;61.20;;;;;;5019989;28;20244;-63
2021/08/11 11:21:56;;;;;;;2.05;1.90;;;23.80;61.10;;;;;;5019383;28;20127;-62
2021/08/11 11:24:48;;;;;;;2.42;2.22;;;23.90;61.10;;;;;;5020193;28;20041;-69
2021/08/11 11:27:56;;;;;;;2.78;2.13;;;23.80;61.00;;;;;;5021328;28;20050;-71
2021/08/11 11:30:34;;;;;;;1.95;1.85;;;23.80;60.90;;;;;;5017573;28;20128;-70
2021/08/11 11:33:30;;;;;;;2.30;2.10;;;23.80;60.90;;;;;;5018528;28;20061;-62
2021/08/11 11:36:22;;;;;;;2.33;2.05;;;23.80;60.70;;;;;;5019179;28;20493;-72
2021/08/11 11:39:10;;;;;;;2.60;2.20;;;23.80;60.80;;;;;;5021532;28;20055;-74
2021/08/11 11:41:58;;;;;;;2.05;1.90;;;23.80;60.90;;;;;;5019161;28;20084;-70
2021/08/11 11:44:53;;;;;;;1.88;1.77;;;23.80;60.90;;;;;;5021405;28;20151;-74
2021/08/11 11:48:01;;;;;;;1.80;1.70;;;23.80;61.00;;;;;;5026374;28;20136;-73
2021/08/11 11:50:28;;;;;;;4.82;1.90;;;23.80;61.00;;;;;;5010629;28;20132;-73
2021/08/11 11:53:03;;;;;;;2.20;2.00;;;23.80;61.00;;;;;;5025901;28;20073;-74
2021/08/11 11:55:32;;;;;;;3.38;1.83;;;23.80;61.00;;;;;;5017773;28;20152;-73
2021/08/11 11:58:02;;;;;;;1.42;1.33;;;23.80;61.00;;;;;;5025933;28;20136;-74
2021/08/11 12:00:29;;;;;;;1.90;1.80;;;23.80;60.90;;;;;;5021150;28;20096;-75
2021/08/11 12:02:57;;;;;;;1.58;1.48;;;23.80;60.90;;;;;;5015033;28;20283;-73
2021/08/11 12:05:25;;;;;;;1.92;1.73;;;23.80;60.90;;;;;;5022862;28;20049;-72
2021/08/11 12:07:53;;;;;;;1.80;1.70;;;23.80;60.90;;;;;;5020462;28;20076;-73
2021/08/11 12:10:28;;;;;;;1.60;1.50;;;23.90;60.90;;;;;;5023234;28;20140;-74
2021/08/11 12:13:02;;;;;;;2.00;1.90;;;23.80;60.90;;;;;;5017582;28;20112;-73
2021/08/11 12:15:31;;;;;;;1.60;1.50;;;23.80;60.90;;;;;;5028813;28;20486;-71
2021/08/11 12:18:00;;;;;;;1.85;1.73;;;23.90;60.90;;;;;;5017778;28;20486;-72
2021/08/11 12:20:32;;;;;;;2.35;2.15;;;23.80;60.90;;;;;;5022210;28;20049;-75
2021/08/11 12:23:22;;;;;;;1.98;1.80;;;23.90;60.70;;;;;;5034712;28;20103;-74
2021/08/11 12:25:58;;;;;;;2.25;1.73;;;23.90;60.60;;;;;;5023734;28;20057;-74
2021/08/11 12:28:36;;;;;;;1.60;1.50;;;23.90;60.50;;;;;;5021846;28;20045;-71
2021/08/11 12:31:17;;;;;;;2.28;1.80;;;23.90;60.60;;;;;;5016793;28;20593;-70
2021/08/11 12:33:47;;;;;;;1.80;1.65;;;23.90;61.20;;;;;;5016946;28;20469;-68
2021/08/11 12:36:21;;;;;;;3.33;1.73;;;23.90;61.40;;;;;;5015707;28;20491;-70
2021/08/11 12:39:10;;;;;;;1.40;1.30;;;23.90;61.20;;;;;;5022662;28;20515;-72
2021/08/11 12:41:41;;;;;;;1.67;1.57;;;23.90;61.00;;;;;;5024422;28;20056;-72
2021/08/11 12:44:19;;;;;;;3.08;1.63;;;23.90;60.90;;;;;;5020354;28;20398;-73
2021/08/11 12:46:49;;;;;;;1.40;1.30;;;23.90;61.10;;;;;;5020425;28;20080;-73
2021/08/11 12:49:23;;;;;;;2.13;1.92;;;23.90;61.80;;;;;;5023668;28;20454;-70
2021/08/11 12:52:22;;;;;;;1.85;1.65;;;23.90;62.00;;;;;;5022290;28;20049;-71
2021/08/11 12:55:05;;;;;;;3.13;1.63;;;23.90;61.80;;;;;;5020225;28;20046;-68
2021/08/11 12:57:52;;;;;;;2.63;1.70;;;23.90;61.50;;;;;;5016073;28;20052;-72
2021/08/11 13:00:39;;;;;;;2.25;1.63;;;23.90;61.50;;;;;;5022395;28;20045;-72
2021/08/11 13:03:10;;;;;;;2.10;1.67;;;24.00;60.90;;;;;;5017491;28;20046;-69
2021/08/11 13:05:51;;;;;;;3.33;1.48;;;24.00;60.60;;;;;;5023077;28;20041;-69
2021/08/11 13:08:18;;;;;;;1.85;1.75;;;24.00;60.70;;;;;;5017572;28;20468;-71
2021/08/11 13:10:56;;;;;;;3.13;1.25;;;24.00;60.80;;;;;;5018941;28;20121;-78